sensor_id;sensor_type;location;lat;lon;timestamp;temperature;humidity
52459;DHT22;38372;52.902;6.024;2024-02-26T00:01:59;3.00;99.90
52459;DHT22;38372;52.902;6.024;2024-02-26T00:04:25;3.00;99.90
52459;DHT22;38372;52.902;6.024;2024-02-26T00:06:50;3.00;99.90
52459;DHT22;38372;52.902;6.024;2024-02-26T00:09:19;3.00;99.90
52459;DHT22;38372;52.902;6.024;2024-02-26T00:11:45;3.00;99.90
52459;DHT22;38372;52.902;6.024;2024-02-26T00:14:11;3.00;99.90
52459;DHT22;38372;52.902;6.024;2024-02-26T00:16:39;3.00;99.90
52459;DHT22;38372;52.902;6.024;2024-02-26T00:19:05;3.00;99.90
52459;DHT22;38372;52.902;6.024;2024-02-26T00:21:40;3.00;99.90
52459;DHT22;38372;52.902;6.024;2024-02-26T00:24:07;3.00;99.90
52459;DHT22;38372;52.902;6.024;2024-02-26T00:26:33;3.00;99.90
52459;DHT22;38372;52.902;6.024;2024-02-26T00:28:59;3.00;99.90
52459;DHT22;38372;52.902;6.024;2024-02-26T00:31:25;2.90;99.90
52459;DHT22;38372;52.902;6.024;2024-02-26T00:33:51;3.00;99.90
52459;DHT22;38372;52.902;6.024;2024-02-26T00:36:16;2.90;99.90
52459;DHT22;38372;52.902;6.024;2024-02-26T00:38:44;3.00;99.90
52459;DHT22;38372;52.902;6.024;2024-02-26T00:41:18;3.00;99.90
52459;DHT22;38372;52.902;6.024;2024-02-26T00:43:44;3.00;99.90
52459;DHT22;38372;52.902;6.024;2024-02-26T00:46:10;3.00;99.90
52459;DHT22;38372;52.902;6.024;2024-02-26T00:48:36;3.00;99.90
52459;DHT22;38372;52.902;6.024;2024-02-26T00:51:03;3.00;99.90
52459;DHT22;38372;52.902;6.024;2024-02-26T00:53:31;2.90;99.90
52459;DHT22;38372;52.902;6.024;2024-02-26T00:55:57;3.00;99.90
52459;DHT22;38372;52.902;6.024;2024-02-26T00:58:29;3.00;99.90
52459;DHT22;38372;52.902;6.024;2024-02-26T01:00:55;3.00;99.90
52459;DHT22;38372;52.902;6.024;2024-02-26T01:03:20;3.00;99.90
52459;DHT22;38372;52.902;6.024;2024-02-26T01:05:46;3.00;99.90
52459;DHT22;38372;52.902;6.024;2024-02-26T01:08:12;3.00;99.90
52459;DHT22;38372;52.902;6.024;2024-02-26T01:10:38;3.00;99.90
52459;DHT22;38372;52.902;6.024;2024-02-26T01:13:04;3.00;99.90
52459;DHT22;38372;52.902;6.024;2024-02-26T01:15:29;2.90;99.90
52459;DHT22;38372;52.902;6.024;2024-02-26T01:17:55;2.90;99.90
52459;DHT22;38372;52.902;6.024;2024-02-26T01:20:21;2.90;99.90
52459;DHT22;38372;52.902;6.024;2024-02-26T01:22:47;2.90;99.90
52459;DHT22;38372;52.902;6.024;2024-02-26T01:25:13;2.90;99.90
52459;DHT22;38372;52.902;6.024;2024-02-26T01:27:39;2.90;99.90
52459;DHT22;38372;52.902;6.024;2024-02-26T01:30:08;2.90;99.90
52459;DHT22;38372;52.902;6.024;2024-02-26T01:32:34;2.90;99.90
52459;DHT22;38372;52.902;6.024;2024-02-26T01:35:01;2.90;99.90
52459;DHT22;38372;52.902;6.024;2024-02-26T01:37:29;2.90;99.90
52459;DHT22;38372;52.902;6.024;2024-02-26T01:39:57;2.90;99.90
52459;DHT22;38372;52.902;6.024;2024-02-26T01:42:23;2.90;99.90
52459;DHT22;38372;52.902;6.024;2024-02-26T01:44:49;2.90;99.90
52459;DHT22;38372;52.902;6.024;2024-02-26T01:47:15;2.90;99.90
52459;DHT22;38372;52.902;6.024;2024-02-26T01:49:41;2.90;99.90
52459;DHT22;38372;52.902;6.024;2024-02-26T01:52:07;2.90;99.90
52459;DHT22;38372;52.902;6.024;2024-02-26T01:54:43;2.90;99.90
52459;DHT22;38372;52.902;6.024;2024-02-26T01:57:16;2.90;99.90
52459;DHT22;38372;52.902;6.024;2024-02-26T01:59:49;2.90;99.90
52459;DHT22;38372;52.902;6.024;2024-02-26T02:02:15;2.90;99.90
52459;DHT22;38372;52.902;6.024;2024-02-26T02:04:41;2.90;99.90
52459;DHT22;38372;52.902;6.024;2024-02-26T02:07:07;2.90;99.90
52459;DHT22;38372;52.902;6.024;2024-02-26T02:09:33;2.90;99.90
52459;DHT22;38372;52.902;6.024;2024-02-26T02:11:59;2.90;99.90
52459;DHT22;38372;52.902;6.024;2024-02-26T02:14:25;2.90;99.90
52459;DHT22;38372;52.902;6.024;2024-02-26T02:16:51;2.90;99.90
52459;DHT22;38372;52.902;6.024;2024-02-26T02:19:17;2.90;99.90
52459;DHT22;38372;52.902;6.024;2024-02-26T02:21:43;2.90;99.90
52459;DHT22;38372;52.902;6.024;2024-02-26T02:24:08;2.90;99.90
52459;DHT22;38372;52.902;6.024;2024-02-26T02:26:34;2.90;99.90
52459;DHT22;38372;52.902;6.024;2024-02-26T02:29:00;2.90;99.90
52459;DHT22;38372;52.902;6.024;2024-02-26T02:31:26;2.90;99.90
52459;DHT22;38372;52.902;6.024;2024-02-26T02:33:52;2.90;99.90
52459;DHT22;38372;52.902;6.024;2024-02-26T02:36:18;3.00;99.90
52459;DHT22;38372;52.902;6.024;2024-02-26T02:38:51;2.90;99.90
52459;DHT22;38372;52.902;6.024;2024-02-26T02:41:18;2.90;99.90
52459;DHT22;38372;52.902;6.024;2024-02-26T02:43:44;2.90;99.90
52459;DHT22;38372;52.902;6.024;2024-02-26T02:46:10;3.00;99.90
52459;DHT22;38372;52.902;6.024;2024-02-26T02:48:38;3.00;99.90
52459;DHT22;38372;52.902;6.024;2024-02-26T02:51:05;3.00;99.90
52459;DHT22;38372;52.902;6.024;2024-02-26T02:53:30;3.00;99.90
52459;DHT22;38372;52.902;6.024;2024-02-26T02:56:03;3.00;99.90
52459;DHT22;38372;52.902;6.024;2024-02-26T02:58:29;3.00;99.90
52459;DHT22;38372;52.902;6.024;2024-02-26T03:00:54;3.00;99.90
52459;DHT22;38372;52.902;6.024;2024-02-26T03:03:20;3.00;99.90
52459;DHT22;38372;52.902;6.024;2024-02-26T03:05:46;3.00;99.90
52459;DHT22;38372;52.902;6.024;2024-02-26T03:08:12;3.00;99.90
52459;DHT22;38372;52.902;6.024;2024-02-26T03:10:38;3.10;99.90
52459;DHT22;38372;52.902;6.024;2024-02-26T03:13:03;3.10;99.90
52459;DHT22;38372;52.902;6.024;2024-02-26T03:15:29;3.00;99.90
52459;DHT22;38372;52.902;6.024;2024-02-26T03:17:55;3.00;99.90
52459;DHT22;38372;52.902;6.024;2024-02-26T03:20:21;3.00;99.90
52459;DHT22;38372;52.902;6.024;2024-02-26T03:22:46;3.10;99.90
52459;DHT22;38372;52.902;6.024;2024-02-26T03:25:12;3.00;99.90
52459;DHT22;38372;52.902;6.024;2024-02-26T03:27:38;3.00;99.90
52459;DHT22;38372;52.902;6.024;2024-02-26T03:30:04;3.10;99.90
52459;DHT22;38372;52.902;6.024;2024-02-26T03:32:30;3.00;99.90
52459;DHT22;38372;52.902;6.024;2024-02-26T03:34:56;3.00;99.90
52459;DHT22;38372;52.902;6.024;2024-02-26T03:37:22;3.10;99.90
52459;DHT22;38372;52.902;6.024;2024-02-26T03:39:47;3.00;99.90
52459;DHT22;38372;52.902;6.024;2024-02-26T03:42:13;3.00;99.90
52459;DHT22;38372;52.902;6.024;2024-02-26T03:44:39;3.00;99.90
52459;DHT22;38372;52.902;6.024;2024-02-26T03:47:05;3.00;99.90
52459;DHT22;38372;52.902;6.024;2024-02-26T03:49:30;3.00;99.90
52459;DHT22;38372;52.902;6.024;2024-02-26T03:51:56;3.00;99.90
52459;DHT22;38372;52.902;6.024;2024-02-26T03:54:22;3.00;99.90
52459;DHT22;38372;52.902;6.024;2024-02-26T03:56:48;3.00;99.90
52459;DHT22;38372;52.902;6.024;2024-02-26T03:59:20;3.00;99.90
52459;DHT22;38372;52.902;6.024;2024-02-26T04:01:52;3.00;99.90
52459;DHT22;38372;52.902;6.024;2024-02-26T04:04:18;3.00;99.90
52459;DHT22;38372;52.902;6.024;2024-02-26T04:06:47;3.00;99.90
52459;DHT22;38372;52.902;6.024;2024-02-26T04:09:16;3.10;99.90
52459;DHT22;38372;52.902;6.024;2024-02-26T04:11:41;3.10;99.90
52459;DHT22;38372;52.902;6.024;2024-02-26T04:14:08;3.00;99.90
52459;DHT22;38372;52.902;6.024;2024-02-26T04:16:36;3.10;99.90
52459;DHT22;38372;52.902;6.024;2024-02-26T04:19:02;3.10;99.90
52459;DHT22;38372;52.902;6.024;2024-02-26T04:21:28;3.10;99.90
52459;DHT22;38372;52.902;6.024;2024-02-26T04:23:54;3.10;99.90
52459;DHT22;38372;52.902;6.024;2024-02-26T04:26:22;3.10;99.90
52459;DHT22;38372;52.902;6.024;2024-02-26T04:28:48;3.10;99.90
52459;DHT22;38372;52.902;6.024;2024-02-26T04:31:13;3.10;99.90
52459;DHT22;38372;52.902;6.024;2024-02-26T04:33:39;3.10;99.90
52459;DHT22;38372;52.902;6.024;2024-02-26T04:36:14;3.10;99.90
52459;DHT22;38372;52.902;6.024;2024-02-26T04:38:42;3.10;99.90
52459;DHT22;38372;52.902;6.024;2024-02-26T04:41:08;3.10;99.90
52459;DHT22;38372;52.902;6.024;2024-02-26T04:43:33;3.10;99.90
52459;DHT22;38372;52.902;6.024;2024-02-26T04:45:59;3.20;99.90
52459;DHT22;38372;52.902;6.024;2024-02-26T04:48:26;3.20;99.90
52459;DHT22;38372;52.902;6.024;2024-02-26T04:50:52;3.10;99.90
52459;DHT22;38372;52.902;6.024;2024-02-26T04:53:17;3.20;99.90
52459;DHT22;38372;52.902;6.024;2024-02-26T04:55:50;3.10;99.90
52459;DHT22;38372;52.902;6.024;2024-02-26T04:58:15;3.20;99.90
52459;DHT22;38372;52.902;6.024;2024-02-26T05:00:41;3.20;99.90
52459;DHT22;38372;52.902;6.024;2024-02-26T05:03:07;3.20;99.90
52459;DHT22;38372;52.902;6.024;2024-02-26T05:05:33;3.20;99.90
52459;DHT22;38372;52.902;6.024;2024-02-26T05:07:59;3.20;99.90
52459;DHT22;38372;52.902;6.024;2024-02-26T05:10:25;3.20;99.90
52459;DHT22;38372;52.902;6.024;2024-02-26T05:12:51;3.20;99.90
52459;DHT22;38372;52.902;6.024;2024-02-26T05:15:16;3.20;99.90
52459;DHT22;38372;52.902;6.024;2024-02-26T05:17:44;3.30;99.90
52459;DHT22;38372;52.902;6.024;2024-02-26T05:20:10;3.30;99.90
52459;DHT22;38372;52.902;6.024;2024-02-26T05:22:37;3.30;99.90
52459;DHT22;38372;52.902;6.024;2024-02-26T05:25:03;3.30;99.90
52459;DHT22;38372;52.902;6.024;2024-02-26T05:27:29;3.30;99.90
52459;DHT22;38372;52.902;6.024;2024-02-26T05:29:55;3.30;99.90
52459;DHT22;38372;52.902;6.024;2024-02-26T05:32:20;3.30;99.90
52459;DHT22;38372;52.902;6.024;2024-02-26T05:34:46;3.30;99.90
52459;DHT22;38372;52.902;6.024;2024-02-26T05:37:12;3.30;99.90
52459;DHT22;38372;52.902;6.024;2024-02-26T05:39:37;3.30;99.90
52459;DHT22;38372;52.902;6.024;2024-02-26T05:42:04;3.40;99.90
52459;DHT22;38372;52.902;6.024;2024-02-26T05:44:30;3.40;99.90
52459;DHT22;38372;52.902;6.024;2024-02-26T05:46:56;3.40;99.90
52459;DHT22;38372;52.902;6.024;2024-02-26T05:49:25;3.40;99.90
52459;DHT22;38372;52.902;6.024;2024-02-26T05:51:50;3.40;99.90
52459;DHT22;38372;52.902;6.024;2024-02-26T05:54:16;3.40;99.90
52459;DHT22;38372;52.902;6.024;2024-02-26T05:56:42;3.40;99.90
52459;DHT22;38372;52.902;6.024;2024-02-26T05:59:15;3.40;99.90
52459;DHT22;38372;52.902;6.024;2024-02-26T06:01:41;3.40;99.90
52459;DHT22;38372;52.902;6.024;2024-02-26T06:04:07;3.40;99.90
52459;DHT22;38372;52.902;6.024;2024-02-26T06:06:33;3.40;99.90
52459;DHT22;38372;52.902;6.024;2024-02-26T06:08:59;3.40;99.90
52459;DHT22;38372;52.902;6.024;2024-02-26T06:11:24;3.40;99.90
52459;DHT22;38372;52.902;6.024;2024-02-26T06:13:50;3.40;99.90
52459;DHT22;38372;52.902;6.024;2024-02-26T06:16:16;3.40;99.90
52459;DHT22;38372;52.902;6.024;2024-02-26T06:18:42;3.40;99.90
52459;DHT22;38372;52.902;6.024;2024-02-26T06:21:11;3.40;99.90
52459;DHT22;38372;52.902;6.024;2024-02-26T06:23:40;3.50;99.90
52459;DHT22;38372;52.902;6.024;2024-02-26T06:26:06;3.50;99.90
52459;DHT22;38372;52.902;6.024;2024-02-26T06:28:31;3.50;99.90
52459;DHT22;38372;52.902;6.024;2024-02-26T06:30:59;3.50;99.90
52459;DHT22;38372;52.902;6.024;2024-02-26T06:33:25;3.50;99.90
52459;DHT22;38372;52.902;6.024;2024-02-26T06:35:51;3.50;99.90
52459;DHT22;38372;52.902;6.024;2024-02-26T06:38:16;3.50;99.90
52459;DHT22;38372;52.902;6.024;2024-02-26T06:40:45;3.50;99.90
52459;DHT22;38372;52.902;6.024;2024-02-26T06:43:11;3.50;99.90
52459;DHT22;38372;52.902;6.024;2024-02-26T06:45:36;3.60;99.90
52459;DHT22;38372;52.902;6.024;2024-02-26T06:48:02;3.60;99.90
52459;DHT22;38372;52.902;6.024;2024-02-26T06:50:28;3.60;99.90
52459;DHT22;38372;52.902;6.024;2024-02-26T06:52:54;3.60;99.90
52459;DHT22;38372;52.902;6.024;2024-02-26T06:55:20;3.60;99.90
52459;DHT22;38372;52.902;6.024;2024-02-26T06:57:59;3.60;99.90
52459;DHT22;38372;52.902;6.024;2024-02-26T07:00:24;3.60;99.90
52459;DHT22;38372;52.902;6.024;2024-02-26T07:02:50;3.60;99.90
52459;DHT22;38372;52.902;6.024;2024-02-26T07:05:16;3.60;99.90
52459;DHT22;38372;52.902;6.024;2024-02-26T07:07:41;3.60;99.90
52459;DHT22;38372;52.902;6.024;2024-02-26T07:10:08;3.60;99.90
52459;DHT22;38372;52.902;6.024;2024-02-26T07:12:34;3.70;99.90
52459;DHT22;38372;52.902;6.024;2024-02-26T07:14:59;3.60;99.90
52459;DHT22;38372;52.902;6.024;2024-02-26T07:17:26;3.70;99.90
52459;DHT22;38372;52.902;6.024;2024-02-26T07:19:52;3.70;99.90
52459;DHT22;38372;52.902;6.024;2024-02-26T07:22:18;3.70;99.90
52459;DHT22;38372;52.902;6.024;2024-02-26T07:24:44;3.70;99.90
52459;DHT22;38372;52.902;6.024;2024-02-26T07:27:09;3.80;99.90
52459;DHT22;38372;52.902;6.024;2024-02-26T07:29:35;3.80;99.90
52459;DHT22;38372;52.902;6.024;2024-02-26T07:32:01;3.80;99.90
52459;DHT22;38372;52.902;6.024;2024-02-26T07:34:27;3.80;99.90
52459;DHT22;38372;52.902;6.024;2024-02-26T07:36:56;3.80;99.90
52459;DHT22;38372;52.902;6.024;2024-02-26T07:39:22;3.90;99.90
52459;DHT22;38372;52.902;6.024;2024-02-26T07:41:48;3.80;99.90
52459;DHT22;38372;52.902;6.024;2024-02-26T07:44:17;3.90;99.90
52459;DHT22;38372;52.902;6.024;2024-02-26T07:46:43;3.90;99.90
52459;DHT22;38372;52.902;6.024;2024-02-26T07:49:08;3.90;99.90
52459;DHT22;38372;52.902;6.024;2024-02-26T07:51:34;4.00;99.90
52459;DHT22;38372;52.902;6.024;2024-02-26T07:54:00;4.00;99.90
52459;DHT22;38372;52.902;6.024;2024-02-26T07:56:26;4.00;99.90
52459;DHT22;38372;52.902;6.024;2024-02-26T07:58:59;4.00;99.90
52459;DHT22;38372;52.902;6.024;2024-02-26T08:01:24;4.00;99.90
52459;DHT22;38372;52.902;6.024;2024-02-26T08:03:53;4.10;99.90
52459;DHT22;38372;52.902;6.024;2024-02-26T08:06:18;4.10;99.90
52459;DHT22;38372;52.902;6.024;2024-02-26T08:08:44;4.10;99.90
52459;DHT22;38372;52.902;6.024;2024-02-26T08:11:10;4.20;99.90
52459;DHT22;38372;52.902;6.024;2024-02-26T08:13:36;4.20;99.90
52459;DHT22;38372;52.902;6.024;2024-02-26T08:16:02;4.20;99.90
52459;DHT22;38372;52.902;6.024;2024-02-26T08:18:27;4.20;99.90
52459;DHT22;38372;52.902;6.024;2024-02-26T08:20:53;4.30;99.90
52459;DHT22;38372;52.902;6.024;2024-02-26T08:23:19;4.30;99.90
52459;DHT22;38372;52.902;6.024;2024-02-26T08:25:44;4.30;99.90
52459;DHT22;38372;52.902;6.024;2024-02-26T08:28:10;4.30;99.90
52459;DHT22;38372;52.902;6.024;2024-02-26T08:30:39;4.30;99.90
52459;DHT22;38372;52.902;6.024;2024-02-26T08:33:05;4.40;99.90
52459;DHT22;38372;52.902;6.024;2024-02-26T08:35:31;4.40;99.90
52459;DHT22;38372;52.902;6.024;2024-02-26T08:37:56;4.40;99.90
52459;DHT22;38372;52.902;6.024;2024-02-26T08:40:22;4.40;99.90
52459;DHT22;38372;52.902;6.024;2024-02-26T08:42:48;4.50;99.90
52459;DHT22;38372;52.902;6.024;2024-02-26T08:45:14;4.50;99.90
52459;DHT22;38372;52.902;6.024;2024-02-26T08:47:40;4.50;99.90
52459;DHT22;38372;52.902;6.024;2024-02-26T08:50:06;4.60;99.90
52459;DHT22;38372;52.902;6.024;2024-02-26T08:52:40;4.60;99.90
52459;DHT22;38372;52.902;6.024;2024-02-26T08:55:22;4.60;99.90
52459;DHT22;38372;52.902;6.024;2024-02-26T08:57:54;4.60;99.90
52459;DHT22;38372;52.902;6.024;2024-02-26T09:00:26;4.70;99.90
52459;DHT22;38372;52.902;6.024;2024-02-26T09:02:51;4.70;99.90
52459;DHT22;38372;52.902;6.024;2024-02-26T09:05:17;4.70;99.90
52459;DHT22;38372;52.902;6.024;2024-02-26T09:07:43;4.70;99.90
52459;DHT22;38372;52.902;6.024;2024-02-26T09:10:09;4.80;99.90
52459;DHT22;38372;52.902;6.024;2024-02-26T09:12:36;4.80;99.90
52459;DHT22;38372;52.902;6.024;2024-02-26T09:15:03;4.80;99.90
52459;DHT22;38372;52.902;6.024;2024-02-26T09:17:29;4.90;99.90
52459;DHT22;38372;52.902;6.024;2024-02-26T09:19:55;4.90;99.90
52459;DHT22;38372;52.902;6.024;2024-02-26T09:22:20;4.90;99.90
52459;DHT22;38372;52.902;6.024;2024-02-26T09:24:46;5.00;99.90
52459;DHT22;38372;52.902;6.024;2024-02-26T09:27:12;5.00;99.90
52459;DHT22;38372;52.902;6.024;2024-02-26T09:29:38;5.00;99.90
52459;DHT22;38372;52.902;6.024;2024-02-26T09:32:04;5.10;99.90
52459;DHT22;38372;52.902;6.024;2024-02-26T09:34:36;5.10;99.90
52459;DHT22;38372;52.902;6.024;2024-02-26T09:37:02;5.10;99.90
52459;DHT22;38372;52.902;6.024;2024-02-26T09:39:28;5.20;99.90
52459;DHT22;38372;52.902;6.024;2024-02-26T09:41:54;5.20;99.90
52459;DHT22;38372;52.902;6.024;2024-02-26T09:44:21;5.20;99.90
52459;DHT22;38372;52.902;6.024;2024-02-26T09:46:48;5.30;99.90
52459;DHT22;38372;52.902;6.024;2024-02-26T09:49:19;5.30;99.90
52459;DHT22;38372;52.902;6.024;2024-02-26T09:51:48;5.40;99.90
52459;DHT22;38372;52.902;6.024;2024-02-26T09:54:15;5.40;99.90
52459;DHT22;38372;52.902;6.024;2024-02-26T09:56:49;5.50;99.90
52459;DHT22;38372;52.902;6.024;2024-02-26T09:59:23;5.50;99.90
52459;DHT22;38372;52.902;6.024;2024-02-26T10:01:57;5.50;99.90
52459;DHT22;38372;52.902;6.024;2024-02-26T10:04:24;5.60;99.90
52459;DHT22;38372;52.902;6.024;2024-02-26T10:06:51;5.60;99.90
52459;DHT22;38372;52.902;6.024;2024-02-26T10:09:18;5.80;99.90
52459;DHT22;38372;52.902;6.024;2024-02-26T10:11:45;5.80;99.90
52459;DHT22;38372;52.902;6.024;2024-02-26T10:14:11;5.80;99.90
52459;DHT22;38372;52.902;6.024;2024-02-26T10:16:37;5.90;99.90
52459;DHT22;38372;52.902;6.024;2024-02-26T10:19:03;6.00;99.90
52459;DHT22;38372;52.902;6.024;2024-02-26T10:21:29;6.00;99.90
52459;DHT22;38372;52.902;6.024;2024-02-26T10:23:55;6.00;99.90
52459;DHT22;38372;52.902;6.024;2024-02-26T10:26:21;6.00;99.90
52459;DHT22;38372;52.902;6.024;2024-02-26T10:28:47;6.10;99.90
52459;DHT22;38372;52.902;6.024;2024-02-26T10:31:16;6.20;99.90
52459;DHT22;38372;52.902;6.024;2024-02-26T10:33:43;6.20;99.90
52459;DHT22;38372;52.902;6.024;2024-02-26T10:36:09;6.20;99.90
52459;DHT22;38372;52.902;6.024;2024-02-26T10:38:36;6.20;99.90
52459;DHT22;38372;52.902;6.024;2024-02-26T10:41:13;6.20;99.90
52459;DHT22;38372;52.902;6.024;2024-02-26T10:43:42;6.20;99.90
52459;DHT22;38372;52.902;6.024;2024-02-26T10:46:09;6.20;99.90
52459;DHT22;38372;52.902;6.024;2024-02-26T10:48:36;6.20;99.90
52459;DHT22;38372;52.902;6.024;2024-02-26T10:51:02;6.20;99.90
52459;DHT22;38372;52.902;6.024;2024-02-26T10:53:29;6.20;99.90
52459;DHT22;38372;52.902;6.024;2024-02-26T10:56:04;6.20;99.90
52459;DHT22;38372;52.902;6.024;2024-02-26T10:58:37;6.20;99.90
52459;DHT22;38372;52.902;6.024;2024-02-26T11:01:16;6.30;99.90
52459;DHT22;38372;52.902;6.024;2024-02-26T11:03:41;6.30;99.90
52459;DHT22;38372;52.902;6.024;2024-02-26T11:06:08;6.30;99.90
52459;DHT22;38372;52.902;6.024;2024-02-26T11:08:39;6.30;99.90
52459;DHT22;38372;52.902;6.024;2024-02-26T11:11:11;6.40;99.90
52459;DHT22;38372;52.902;6.024;2024-02-26T11:13:41;6.40;99.90
52459;DHT22;38372;52.902;6.024;2024-02-26T11:16:11;6.40;99.90
52459;DHT22;38372;52.902;6.024;2024-02-26T11:18:39;6.50;99.90
52459;DHT22;38372;52.902;6.024;2024-02-26T11:21:06;6.50;99.90
52459;DHT22;38372;52.902;6.024;2024-02-26T11:23:34;6.60;99.90
52459;DHT22;38372;52.902;6.024;2024-02-26T11:26:04;6.70;99.90
52459;DHT22;38372;52.902;6.024;2024-02-26T11:28:32;6.70;99.90
52459;DHT22;38372;52.902;6.024;2024-02-26T11:31:00;6.80;99.90
52459;DHT22;38372;52.902;6.024;2024-02-26T11:33:28;6.70;99.90
52459;DHT22;38372;52.902;6.024;2024-02-26T11:35:54;6.70;99.90
52459;DHT22;38372;52.902;6.024;2024-02-26T11:38:21;6.70;99.90
52459;DHT22;38372;52.902;6.024;2024-02-26T11:40:47;6.70;99.90
52459;DHT22;38372;52.902;6.024;2024-02-26T11:43:14;6.60;99.90
52459;DHT22;38372;52.902;6.024;2024-02-26T11:48:13;6.60;99.90
52459;DHT22;38372;52.902;6.024;2024-02-26T11:50:41;6.60;99.90
52459;DHT22;38372;52.902;6.024;2024-02-26T11:53:20;6.50;99.90
52459;DHT22;38372;52.902;6.024;2024-02-26T11:55:46;6.50;99.90
52459;DHT22;38372;52.902;6.024;2024-02-26T11:58:19;6.50;99.90
52459;DHT22;38372;52.902;6.024;2024-02-26T12:01:02;6.50;99.90
52459;DHT22;38372;52.902;6.024;2024-02-26T12:03:31;6.40;99.90
52459;DHT22;38372;52.902;6.024;2024-02-26T12:05:59;6.50;99.90
52459;DHT22;38372;52.902;6.024;2024-02-26T12:08:34;6.50;99.90
52459;DHT22;38372;52.902;6.024;2024-02-26T12:11:00;6.50;99.90
52459;DHT22;38372;52.902;6.024;2024-02-26T12:13:33;6.50;99.90
52459;DHT22;38372;52.902;6.024;2024-02-26T12:16:08;6.50;99.90
52459;DHT22;38372;52.902;6.024;2024-02-26T12:18:44;6.50;99.90
52459;DHT22;38372;52.902;6.024;2024-02-26T12:21:11;6.50;99.90
52459;DHT22;38372;52.902;6.024;2024-02-26T12:23:38;6.50;99.90
52459;DHT22;38372;52.902;6.024;2024-02-26T12:26:04;6.50;99.90
52459;DHT22;38372;52.902;6.024;2024-02-26T12:28:30;6.50;99.90
52459;DHT22;38372;52.902;6.024;2024-02-26T12:30:56;6.50;99.90
52459;DHT22;38372;52.902;6.024;2024-02-26T12:33:25;6.50;99.90
52459;DHT22;38372;52.902;6.024;2024-02-26T12:35:53;6.50;99.90
52459;DHT22;38372;52.902;6.024;2024-02-26T12:38:18;6.50;99.90
52459;DHT22;38372;52.902;6.024;2024-02-26T12:40:45;6.60;99.90
52459;DHT22;38372;52.902;6.024;2024-02-26T12:43:18;6.60;99.90
52459;DHT22;38372;52.902;6.024;2024-02-26T12:45:44;6.60;99.90
52459;DHT22;38372;52.902;6.024;2024-02-26T12:48:13;6.60;99.90
52459;DHT22;38372;52.902;6.024;2024-02-26T12:50:38;6.60;99.90
52459;DHT22;38372;52.902;6.024;2024-02-26T12:53:05;6.50;99.90
52459;DHT22;38372;52.902;6.024;2024-02-26T12:55:32;6.50;99.90
52459;DHT22;38372;52.902;6.024;2024-02-26T12:58:07;6.40;99.90
52459;DHT22;38372;52.902;6.024;2024-02-26T13:00:33;6.50;99.90
52459;DHT22;38372;52.902;6.024;2024-02-26T13:03:00;6.40;99.90
52459;DHT22;38372;52.902;6.024;2024-02-26T13:05:26;6.40;99.90
52459;DHT22;38372;52.902;6.024;2024-02-26T13:07:52;6.40;99.90
52459;DHT22;38372;52.902;6.024;2024-02-26T13:10:18;6.40;99.90
52459;DHT22;38372;52.902;6.024;2024-02-26T13:12:46;6.40;99.90
52459;DHT22;38372;52.902;6.024;2024-02-26T13:15:17;6.50;99.90
52459;DHT22;38372;52.902;6.024;2024-02-26T13:17:44;6.40;99.90
52459;DHT22;38372;52.902;6.024;2024-02-26T13:20:10;6.40;99.90
52459;DHT22;38372;52.902;6.024;2024-02-26T13:22:37;6.40;99.90
52459;DHT22;38372;52.902;6.024;2024-02-26T13:25:03;6.40;99.90
52459;DHT22;38372;52.902;6.024;2024-02-26T13:27:29;6.40;99.90
52459;DHT22;38372;52.902;6.024;2024-02-26T13:30:08;6.40;99.90
52459;DHT22;38372;52.902;6.024;2024-02-26T13:32:39;6.30;99.90
52459;DHT22;38372;52.902;6.024;2024-02-26T13:35:12;6.30;99.90
52459;DHT22;38372;52.902;6.024;2024-02-26T13:37:39;6.30;99.90
52459;DHT22;38372;52.902;6.024;2024-02-26T13:40:09;6.20;99.90
52459;DHT22;38372;52.902;6.024;2024-02-26T13:42:36;6.20;99.90
52459;DHT22;38372;52.902;6.024;2024-02-26T13:45:03;6.20;99.90
52459;DHT22;38372;52.902;6.024;2024-02-26T13:47:32;6.20;99.90
52459;DHT22;38372;52.902;6.024;2024-02-26T13:49:58;6.20;99.90
52459;DHT22;38372;52.902;6.024;2024-02-26T13:52:24;6.20;99.90
52459;DHT22;38372;52.902;6.024;2024-02-26T13:54:51;6.20;99.90
52459;DHT22;38372;52.902;6.024;2024-02-26T13:57:18;6.20;99.90
52459;DHT22;38372;52.902;6.024;2024-02-26T13:59:57;6.30;99.90
52459;DHT22;38372;52.902;6.024;2024-02-26T14:02:23;6.20;99.90
52459;DHT22;38372;52.902;6.024;2024-02-26T14:04:49;6.20;99.90
52459;DHT22;38372;52.902;6.024;2024-02-26T14:07:15;6.20;99.90
52459;DHT22;38372;52.902;6.024;2024-02-26T14:09:43;6.20;99.90
52459;DHT22;38372;52.902;6.024;2024-02-26T14:12:09;6.10;99.90
52459;DHT22;38372;52.902;6.024;2024-02-26T14:14:35;6.10;99.90
52459;DHT22;38372;52.902;6.024;2024-02-26T14:17:04;6.10;99.90
52459;DHT22;38372;52.902;6.024;2024-02-26T14:19:29;6.10;99.90
52459;DHT22;38372;52.902;6.024;2024-02-26T14:21:55;6.00;99.90
52459;DHT22;38372;52.902;6.024;2024-02-26T14:24:21;6.00;99.90
52459;DHT22;38372;52.902;6.024;2024-02-26T14:26:47;6.00;99.90
52459;DHT22;38372;52.902;6.024;2024-02-26T14:29:12;6.00;99.90
52459;DHT22;38372;52.902;6.024;2024-02-26T14:31:59;6.00;99.90
52459;DHT22;38372;52.902;6.024;2024-02-26T14:34:26;6.00;99.90
52459;DHT22;38372;52.902;6.024;2024-02-26T14:36:52;6.10;99.90
52459;DHT22;38372;52.902;6.024;2024-02-26T14:39:18;6.00;99.90
52459;DHT22;38372;52.902;6.024;2024-02-26T14:41:44;6.00;99.90
52459;DHT22;38372;52.902;6.024;2024-02-26T14:44:09;6.00;99.90
52459;DHT22;38372;52.902;6.024;2024-02-26T14:46:36;6.00;99.90
52459;DHT22;38372;52.902;6.024;2024-02-26T14:49:02;6.00;99.90
52459;DHT22;38372;52.902;6.024;2024-02-26T14:51:28;6.00;99.90
52459;DHT22;38372;52.902;6.024;2024-02-26T14:53:53;6.00;99.90
52459;DHT22;38372;52.902;6.024;2024-02-26T14:56:25;5.90;99.90
52459;DHT22;38372;52.902;6.024;2024-02-26T14:59:05;5.80;99.90
52459;DHT22;38372;52.902;6.024;2024-02-26T15:01:31;5.80;99.90
52459;DHT22;38372;52.902;6.024;2024-02-26T15:03:56;5.80;99.90
52459;DHT22;38372;52.902;6.024;2024-02-26T15:06:23;5.80;99.90
52459;DHT22;38372;52.902;6.024;2024-02-26T15:08:49;5.70;99.90
52459;DHT22;38372;52.902;6.024;2024-02-26T15:11:15;5.70;99.90
52459;DHT22;38372;52.902;6.024;2024-02-26T15:13:41;5.70;99.90
52459;DHT22;38372;52.902;6.024;2024-02-26T15:16:07;5.60;99.90
52459;DHT22;38372;52.902;6.024;2024-02-26T15:18:32;5.60;99.90
52459;DHT22;38372;52.902;6.024;2024-02-26T15:20:58;5.60;99.90
52459;DHT22;38372;52.902;6.024;2024-02-26T15:23:24;5.60;99.90
52459;DHT22;38372;52.902;6.024;2024-02-26T15:25:50;5.60;99.90
52459;DHT22;38372;52.902;6.024;2024-02-26T15:28:16;5.50;99.90
52459;DHT22;38372;52.902;6.024;2024-02-26T15:30:42;5.60;99.90
52459;DHT22;38372;52.902;6.024;2024-02-26T15:33:08;5.50;99.90
52459;DHT22;38372;52.902;6.024;2024-02-26T15:35:34;5.50;99.90
52459;DHT22;38372;52.902;6.024;2024-02-26T15:38:01;5.50;99.90
52459;DHT22;38372;52.902;6.024;2024-02-26T15:40:27;5.50;99.90
52459;DHT22;38372;52.902;6.024;2024-02-26T15:42:53;5.40;99.90
52459;DHT22;38372;52.902;6.024;2024-02-26T15:45:18;5.40;99.90
52459;DHT22;38372;52.902;6.024;2024-02-26T15:47:44;5.40;99.90